Forside
METAR-TAF:

METAR-TAF

Lufthavne :

Kosrae, Mikronesien

Breddekreds: 05-21N, længdekreds: 162-57E, højde: 3 m

Aktuelle vejr

Denne rapport blev lavet for 4 timer og 36 minutter siden, kl. 04:50 UTC
Vind 6 kt fra øst
Temperatur 30°C
Fugtighed 75%
Tryk 1007 hPa
Sigt: 16.1 km
Brudte skyer i en højde af 2100 ft, Optårnet Cumulus.
Brudte skyer i en højde af 13000 ft
Brudte skyer i en højde af 30000 ft

METAR: PTSA 230450Z 09006KT 10SM BKN021TCU BKN130 BKN300 30/25 A2973 RMK TCU SW LAST

Tid: 20:26 (09:26 UTC)

Vejrudsigter

Denne rapport blev lavet for 10 timer og 6 minutter siden, kl. 23:20 UTC
Foreløbig gælder fra 23 på 00 UTC til 23 på 24 UTC
Vind 10 kt fra nordøst
Sigt: 10 km
Spredte skyer i en højde af 2000 ft
Brudte skyer i en højde af 13000 ft
Brudte skyer i en højde af 30000 ft
byger i nærheden

TAF: PTSA 222320Z 2300/2324 05010KT P6SM VCSH SCT020 BKN130 BKN300

Vejrobservationer og prognoser fra mere end 4000 lufthavne (METAR og TAF).

De gule og røde prikker repræsenterer de meteorologiske stationer.

Flyt musen over at se navnet på stationen.

Så klik over at se vejr observationer og prognoser.

At skifte det kort: Klik på de grønne knapper med et sort kors for at zoome ind; på den grønne knap med en bindestreg for at zoome ud; eller på de grønne pile for tilstødende kort.


METAR-TAF: